createdAt,value
2023-02-26T00:01:21.036Z,0.20
2023-02-26T00:03:52.010Z,0.21
2023-02-26T00:06:19.775Z,0.21
2023-02-26T00:08:46.660Z,0.22
2023-02-26T00:11:14.626Z,0.21
2023-02-26T00:13:44.110Z,0.24
2023-02-26T00:16:30.227Z,0.25
2023-02-26T00:18:59.333Z,0.18
2023-02-26T00:21:27.000Z,0.14
2023-02-26T00:23:54.423Z,0.08
2023-02-26T00:26:23.445Z,0.01
2023-02-26T00:28:50.712Z,-0.03
2023-02-26T00:31:18.723Z,-0.04
2023-02-26T00:33:45.878Z,-0.05
2023-02-26T00:36:25.798Z,-0.04
2023-02-26T00:39:07.583Z,-0.10
2023-02-26T00:41:36.277Z,-0.13
2023-02-26T00:44:03.439Z,-0.17
2023-02-26T00:46:42.410Z,-0.20
2023-02-26T00:49:38.095Z,-0.29
2023-02-26T00:52:11.419Z,-0.26
2023-02-26T00:54:38.147Z,-0.29
2023-02-26T00:57:05.969Z,-0.32
2023-02-26T00:59:32.798Z,-0.36
2023-02-26T01:01:59.583Z,-0.39
2023-02-26T01:04:26.717Z,-0.41
2023-02-26T01:06:57.193Z,-0.42
2023-02-26T01:09:33.430Z,-0.41
2023-02-26T01:12:03.795Z,-0.42
2023-02-26T01:14:32.568Z,-0.43
2023-02-26T01:17:15.762Z,-0.43
2023-02-26T01:19:53.382Z,-0.43
2023-02-26T01:22:36.027Z,-0.44
2023-02-26T01:25:16.035Z,-0.46
2023-02-26T01:27:42.934Z,-0.47
2023-02-26T01:30:10.426Z,-0.48
2023-02-26T01:32:43.635Z,-0.49
2023-02-26T01:35:32.425Z,-0.48
2023-02-26T01:38:32.200Z,-0.48
2023-02-26T01:41:04.616Z,-0.51
2023-02-26T01:44:09.950Z,-0.50
2023-02-26T01:47:10.672Z,-0.47
2023-02-26T01:49:38.522Z,-0.50
2023-02-26T01:52:08.059Z,-0.50
2023-02-26T01:54:37.867Z,-0.50
2023-02-26T01:57:10.946Z,-0.48
2023-02-26T01:59:42.573Z,-0.48
2023-02-26T02:02:11.023Z,-0.50
2023-02-26T02:04:39.381Z,-0.51
2023-02-26T02:07:07.061Z,-0.51
2023-02-26T02:09:34.873Z,-0.50
2023-02-26T02:12:32.549Z,-0.43
2023-02-26T02:15:28.362Z,-0.40
2023-02-26T02:18:03.828Z,-0.42
2023-02-26T02:20:52.837Z,-0.40
2023-02-26T02:23:55.724Z,-0.40
2023-02-26T02:26:46.736Z,-0.47
2023-02-26T02:29:32.239Z,-0.52
2023-02-26T02:32:42.032Z,-0.58
2023-02-26T02:35:41.460Z,-0.62
2023-02-26T02:38:19.024Z,-0.68
2023-02-26T02:40:55.846Z,-0.69
2023-02-26T02:43:28.118Z,-0.73
2023-02-26T02:45:57.839Z,-0.74
2023-02-26T02:48:46.319Z,-0.75
2023-02-26T02:51:25.429Z,-0.78
2023-02-26T02:54:15.178Z,-0.74
2023-02-26T02:56:49.135Z,-0.73
2023-02-26T02:59:45.139Z,-0.69
2023-02-26T03:02:11.843Z,-0.70
2023-02-26T03:04:40.105Z,-0.69
2023-02-26T03:07:06.953Z,-0.68
2023-02-26T03:09:34.001Z,-0.66
2023-02-26T03:12:01.074Z,-0.63
2023-02-26T03:14:29.223Z,-0.61
2023-02-26T03:17:08.211Z,-0.54
2023-02-26T03:19:54.477Z,-0.51
2023-02-26T03:22:55.168Z,-0.49
2023-02-26T03:25:26.876Z,-0.45
2023-02-26T03:28:18.064Z,-0.45
2023-02-26T03:30:51.660Z,-0.41
2023-02-26T03:33:25.290Z,-0.38
2023-02-26T03:36:25.098Z,-0.37
2023-02-26T03:38:59.182Z,-0.37
2023-02-26T03:42:02.765Z,-0.35
2023-02-26T03:44:53.201Z,-0.34
2023-02-26T03:47:20.647Z,-0.38
2023-02-26T03:49:56.955Z,-0.38
2023-02-26T03:52:27.093Z,-0.43
2023-02-26T03:55:03.681Z,-0.41
2023-02-26T03:57:31.083Z,-0.43
2023-02-26T03:59:57.898Z,-0.41
2023-02-26T04:02:37.255Z,-0.36
2023-02-26T04:05:08.438Z,-0.36
2023-02-26T04:07:35.184Z,-0.37
2023-02-26T04:10:01.969Z,-0.35
2023-02-26T04:12:29.451Z,-0.34
2023-02-26T04:14:57.411Z,-0.34
2023-02-26T04:17:24.192Z,-0.31
2023-02-26T04:19:50.963Z,-0.29
2023-02-26T04:22:17.825Z,-0.30
2023-02-26T04:24:44.627Z,-0.30
2023-02-26T04:27:11.351Z,-0.30
2023-02-26T04:29:38.079Z,-0.26
2023-02-26T04:32:04.993Z,-0.27
2023-02-26T04:34:31.902Z,-0.29
2023-02-26T04:36:58.785Z,-0.25
2023-02-26T04:39:25.628Z,-0.25
2023-02-26T04:41:52.355Z,-0.26
2023-02-26T04:44:19.059Z,-0.25
2023-02-26T04:46:45.909Z,-0.24
2023-02-26T04:49:12.774Z,-0.23
2023-02-26T04:51:39.508Z,-0.22
2023-02-26T04:54:06.323Z,-0.17
2023-02-26T04:56:33.567Z,-0.16
2023-02-26T04:59:00.543Z,-0.14
2023-02-26T05:01:27.470Z,-0.13
2023-02-26T05:03:54.302Z,-0.13
2023-02-26T05:06:21.222Z,-0.09
2023-02-26T05:08:48.050Z,-0.10
2023-02-26T05:11:14.789Z,-0.14
2023-02-26T05:13:41.528Z,-0.13
2023-02-26T05:16:08.875Z,-0.09
2023-02-26T05:18:35.692Z,-0.07
2023-02-26T05:21:02.749Z,-0.08
2023-02-26T05:23:29.462Z,-0.07
2023-02-26T05:25:57.406Z,-0.10
2023-02-26T05:28:25.820Z,-0.07
2023-02-26T05:30:52.945Z,-0.08
2023-02-26T05:33:19.796Z,-0.08
2023-02-26T05:35:48.205Z,-0.12
2023-02-26T05:38:15.642Z,-0.07
2023-02-26T05:40:42.476Z,-0.07
2023-02-26T05:43:10.369Z,-0.04
2023-02-26T05:45:37.393Z,-0.07
2023-02-26T05:48:04.383Z,-0.03
2023-02-26T05:50:31.287Z,-0.02
2023-02-26T05:52:58.322Z,-0.05
2023-02-26T05:55:25.245Z,-0.06
2023-02-26T05:57:52.010Z,-0.04
2023-02-26T06:00:19.211Z,-0.04
2023-02-26T06:02:46.098Z,0.00
2023-02-26T06:05:12.927Z,0.02
2023-02-26T06:07:39.700Z,0.05
2023-02-26T06:10:08.720Z,0.04
2023-02-26T06:12:35.916Z,0.04
2023-02-26T06:15:03.118Z,0.05
2023-02-26T06:17:30.472Z,0.08
2023-02-26T06:19:57.303Z,0.07
2023-02-26T06:22:24.187Z,0.10
2023-02-26T06:24:50.946Z,0.09
2023-02-26T06:27:18.269Z,0.10
2023-02-26T06:29:45.007Z,0.15
2023-02-26T06:32:11.860Z,0.15
2023-02-26T06:34:38.685Z,0.13
2023-02-26T06:37:05.727Z,0.16
2023-02-26T06:39:32.729Z,0.21
2023-02-26T06:41:59.895Z,0.20
2023-02-26T06:44:26.685Z,0.18
2023-02-26T06:46:53.487Z,0.25
2023-02-26T06:49:20.348Z,0.23
2023-02-26T06:51:47.045Z,0.27
2023-02-26T06:54:13.875Z,0.29
2023-02-26T06:56:40.607Z,0.29
2023-02-26T06:59:07.380Z,0.27
2023-02-26T07:01:34.228Z,0.28
2023-02-26T07:04:01.009Z,0.27
2023-02-26T07:06:28.319Z,0.28
2023-02-26T07:08:55.645Z,0.29
2023-02-26T07:11:22.946Z,0.25
2023-02-26T07:13:51.468Z,0.24
2023-02-26T07:16:18.773Z,0.27
2023-02-26T07:18:45.618Z,0.29
2023-02-26T07:21:12.372Z,0.31
2023-02-26T07:23:39.139Z,0.31
2023-02-26T07:26:05.899Z,0.32
2023-02-26T07:28:32.699Z,0.37
2023-02-26T07:30:59.628Z,0.39
2023-02-26T07:33:28.435Z,0.37
2023-02-26T07:35:55.183Z,0.42
2023-02-26T07:38:21.977Z,0.43
2023-02-26T07:40:48.939Z,0.42
2023-02-26T07:43:15.906Z,0.44
2023-02-26T07:45:42.623Z,0.43
2023-02-26T07:48:09.431Z,0.44
2023-02-26T07:50:36.232Z,0.41
2023-02-26T07:53:03.033Z,0.41
2023-02-26T07:55:30.026Z,0.40
2023-02-26T07:57:56.927Z,0.46
2023-02-26T08:00:23.789Z,0.44
2023-02-26T08:02:50.551Z,0.46
2023-02-26T08:05:17.709Z,0.53
2023-02-26T08:07:44.484Z,0.57
2023-02-26T08:10:11.949Z,0.61
2023-02-26T08:12:39.270Z,0.69
2023-02-26T08:15:06.866Z,0.80
2023-02-26T08:17:34.415Z,0.85
2023-02-26T08:20:01.177Z,0.91
2023-02-26T08:22:28.574Z,0.96
2023-02-26T08:24:55.833Z,1.05
2023-02-26T08:27:22.616Z,1.04
2023-02-26T08:29:50.396Z,1.04
2023-02-26T08:32:19.844Z,0.96
2023-02-26T08:34:47.204Z,0.88
2023-02-26T08:37:14.301Z,0.84
2023-02-26T08:39:41.221Z,0.76
2023-02-26T08:42:09.552Z,0.70
2023-02-26T08:44:36.557Z,0.67
2023-02-26T08:47:03.962Z,0.66
2023-02-26T08:49:31.077Z,0.61
2023-02-26T08:51:57.901Z,0.61
2023-02-26T08:54:25.154Z,0.56
2023-02-26T08:56:53.740Z,0.59
2023-02-26T08:59:20.493Z,0.56
2023-02-26T09:01:47.384Z,0.48
2023-02-26T09:04:14.263Z,0.44
2023-02-26T09:06:41.647Z,0.41
2023-02-26T09:09:08.707Z,0.44
2023-02-26T09:11:36.825Z,0.42
2023-02-26T09:14:04.788Z,0.45
2023-02-26T09:16:32.116Z,0.47
2023-02-26T09:18:58.901Z,0.48
2023-02-26T09:21:25.711Z,0.48
2023-02-26T09:23:52.621Z,0.48
2023-02-26T09:26:19.491Z,0.48
2023-02-26T09:28:46.336Z,0.43
2023-02-26T09:31:13.366Z,0.40
2023-02-26T09:33:40.277Z,0.40
2023-02-26T09:36:07.563Z,0.38
2023-02-26T09:38:35.936Z,0.38
2023-02-26T09:41:07.177Z,0.45
2023-02-26T09:43:33.920Z,0.46
2023-02-26T09:46:13.834Z,0.45
2023-02-26T09:48:42.416Z,0.43
2023-02-26T09:51:15.570Z,0.47
2023-02-26T09:53:42.536Z,0.47
2023-02-26T09:56:17.806Z,0.51
2023-02-26T09:58:45.856Z,0.53
2023-02-26T10:01:43.910Z,0.62
2023-02-26T10:04:18.775Z,0.67
2023-02-26T10:06:46.858Z,0.72
2023-02-26T10:09:22.706Z,0.80
2023-02-26T10:11:55.410Z,0.85
2023-02-26T10:14:38.091Z,0.93
2023-02-26T10:17:26.627Z,0.92
2023-02-26T10:19:58.627Z,0.92
2023-02-26T10:22:25.271Z,0.91
2023-02-26T10:24:57.927Z,0.82
2023-02-26T10:27:47.072Z,0.80
2023-02-26T10:30:27.682Z,0.84
2023-02-26T10:33:22.056Z,0.83
2023-02-26T10:35:54.450Z,0.94
2023-02-26T10:38:27.257Z,0.97
2023-02-26T10:41:11.670Z,1.02
2023-02-26T10:43:55.753Z,1.08
2023-02-26T10:46:32.605Z,1.13
2023-02-26T10:49:20.870Z,1.18
2023-02-26T10:51:48.188Z,1.14
2023-02-26T10:54:37.407Z,1.13
2023-02-26T10:57:04.344Z,1.04
2023-02-26T10:59:32.018Z,1.07
2023-02-26T11:02:00.573Z,1.09
2023-02-26T11:04:28.054Z,1.05
2023-02-26T11:06:58.699Z,1.05
2023-02-26T11:09:34.639Z,1.06
2023-02-26T11:12:13.786Z,1.09
2023-02-26T11:14:42.844Z,1.08
2023-02-26T11:17:32.480Z,1.12
2023-02-26T11:20:15.726Z,1.12
2023-02-26T11:22:47.850Z,1.14
2023-02-26T11:25:19.954Z,1.14
2023-02-26T11:27:50.985Z,1.13
2023-02-26T11:30:21.178Z,1.09
2023-02-26T11:32:54.154Z,1.11
2023-02-26T11:35:24.487Z,1.16
2023-02-26T11:37:58.590Z,1.29
2023-02-26T11:40:39.261Z,1.39
2023-02-26T11:43:10.622Z,1.32
2023-02-26T11:45:42.068Z,1.33
2023-02-26T11:48:16.586Z,1.37
2023-02-26T11:50:47.539Z,1.38
2023-02-26T11:53:35.690Z,1.51
2023-02-26T11:56:09.170Z,1.47
2023-02-26T11:58:39.298Z,1.40
2023-02-26T12:01:10.601Z,1.33
2023-02-26T12:03:42.592Z,1.36
2023-02-26T12:06:16.504Z,1.41
2023-02-26T12:08:43.301Z,1.33
2023-02-26T12:11:52.028Z,1.34
2023-02-26T12:14:27.706Z,1.24
2023-02-26T12:17:26.385Z,1.28
2023-02-26T12:20:32.310Z,1.22
2023-02-26T12:23:11.272Z,1.16
2023-02-26T12:25:47.281Z,0.99
2023-02-26T12:28:23.378Z,0.15
2023-02-26T12:31:18.238Z,-0.29
2023-02-26T12:33:55.213Z,-0.59
2023-02-26T12:36:49.465Z,-0.62
2023-02-26T12:39:38.422Z,-0.64
2023-02-26T12:42:27.100Z,-0.66
2023-02-26T12:45:16.843Z,-0.67
2023-02-26T12:47:54.638Z,-0.69
2023-02-26T12:50:24.751Z,-0.65
2023-02-26T12:53:18.392Z,-0.65
2023-02-26T12:55:54.040Z,-0.59
2023-02-26T12:58:32.962Z,-0.56
2023-02-26T13:01:12.022Z,-0.52
2023-02-26T13:04:00.441Z,-0.49
2023-02-26T13:06:51.992Z,-0.45
2023-02-26T13:09:37.490Z,-0.42
2023-02-26T13:12:29.033Z,-0.38
2023-02-26T13:15:04.169Z,-0.39
2023-02-26T13:17:37.556Z,-0.35
2023-02-26T13:20:25.452Z,-0.34
2023-02-26T13:22:57.844Z,-0.33
2023-02-26T13:25:39.205Z,-0.34
2023-02-26T13:28:20.564Z,-0.34
2023-02-26T13:30:55.791Z,-0.33
2023-02-26T13:33:30.730Z,-0.36
2023-02-26T13:35:59.000Z,-0.39
2023-02-26T13:38:42.295Z,-0.35
2023-02-26T13:41:15.086Z,-0.40
2023-02-26T13:43:57.143Z,-0.36
2023-02-26T13:46:32.702Z,-0.38
2023-02-26T13:49:04.100Z,-0.47
2023-02-26T13:51:37.396Z,-0.51
2023-02-26T13:54:16.623Z,-0.64
2023-02-26T13:56:49.533Z,-0.74
2023-02-26T13:59:20.227Z,-0.76
2023-02-26T14:01:50.085Z,-0.91
2023-02-26T14:04:23.211Z,-0.86
2023-02-26T14:06:52.606Z,-0.93
2023-02-26T14:09:22.198Z,-1.06
2023-02-26T14:12:01.967Z,-1.00
2023-02-26T14:14:40.666Z,-0.98
2023-02-26T14:17:07.872Z,-1.11
2023-02-26T14:19:44.055Z,-1.10
2023-02-26T14:22:26.025Z,-1.12
2023-02-26T14:25:18.298Z,-1.22
2023-02-26T14:27:47.894Z,-1.24
2023-02-26T14:30:34.618Z,-1.21
2023-02-26T14:33:08.070Z,-1.25
2023-02-26T14:35:43.479Z,-1.24
2023-02-26T14:38:20.615Z,-1.26
2023-02-26T14:40:55.634Z,-1.30
2023-02-26T14:43:39.997Z,-1.26
2023-02-26T14:46:09.773Z,-1.28
2023-02-26T14:48:37.920Z,-1.33
2023-02-26T14:51:35.726Z,-1.29
2023-02-26T14:54:15.807Z,-1.36
2023-02-26T14:57:01.124Z,-1.39
2023-02-26T14:59:27.847Z,-1.42
2023-02-26T15:02:46.445Z,-1.48
2023-02-26T15:05:51.100Z,-1.53
2023-02-26T15:08:43.260Z,-1.59
2023-02-26T15:11:28.601Z,-1.50
2023-02-26T15:14:17.220Z,-1.57
2023-02-26T15:17:13.483Z,-1.64
2023-02-26T15:20:04.899Z,-1.79
2023-02-26T15:23:18.417Z,-1.85
2023-02-26T15:25:48.350Z,-1.94
2023-02-26T15:28:35.570Z,-1.96
2023-02-26T15:31:06.373Z,-1.98
2023-02-26T15:33:34.322Z,-2.00
2023-02-26T15:36:05.230Z,-1.98
2023-02-26T15:38:48.771Z,-1.97
2023-02-26T15:41:17.483Z,-2.09
2023-02-26T15:43:50.541Z,-2.07
2023-02-26T15:46:18.213Z,-2.20
2023-02-26T15:48:45.494Z,-2.27
2023-02-26T15:51:14.993Z,-2.25
2023-02-26T15:53:48.779Z,-2.26
2023-02-26T15:56:22.950Z,-2.26
2023-02-26T15:58:55.043Z,-2.24
2023-02-26T16:01:24.878Z,-2.23
2023-02-26T16:03:54.407Z,-2.19
2023-02-26T16:06:30.390Z,-2.21
2023-02-26T16:08:58.221Z,-2.24
2023-02-26T16:11:33.437Z,-2.29
2023-02-26T16:14:01.853Z,-2.34
2023-02-26T16:16:50.419Z,-2.35
2023-02-26T16:19:20.935Z,-2.39
2023-02-26T16:21:48.874Z,-2.41
2023-02-26T16:24:23.099Z,-2.52
2023-02-26T16:26:56.227Z,-2.56
2023-02-26T16:29:27.285Z,-2.58
2023-02-26T16:32:00.556Z,-2.56
2023-02-26T16:34:44.405Z,-2.61
2023-02-26T16:37:29.578Z,-2.59
2023-02-26T16:39:59.632Z,-2.61
2023-02-26T16:42:50.870Z,-2.61
2023-02-26T16:45:17.944Z,-2.60
2023-02-26T16:47:48.671Z,-2.59
2023-02-26T16:50:24.508Z,-2.52
2023-02-26T16:53:01.402Z,-2.50
2023-02-26T16:55:31.520Z,-2.52
2023-02-26T16:58:02.845Z,-2.52
2023-02-26T17:00:33.098Z,-2.53
2023-02-26T17:03:04.715Z,-2.51
2023-02-26T17:05:34.929Z,-2.54
2023-02-26T17:08:06.976Z,-2.60
2023-02-26T17:10:39.963Z,-2.61
2023-02-26T17:13:17.556Z,-2.67
2023-02-26T17:15:46.637Z,-2.67
2023-02-26T17:18:14.105Z,-2.82
2023-02-26T17:20:41.440Z,-2.86
2023-02-26T17:23:09.846Z,-2.92
2023-02-26T17:25:42.377Z,-2.85
2023-02-26T17:28:15.596Z,-2.85
2023-02-26T17:30:42.427Z,-2.94
2023-02-26T17:33:13.484Z,-2.94
2023-02-26T17:35:41.580Z,-3.00
2023-02-26T17:38:13.345Z,-2.98
2023-02-26T17:40:41.134Z,-2.99
2023-02-26T17:43:10.009Z,-3.05
2023-02-26T17:45:40.265Z,-3.07
2023-02-26T17:48:07.905Z,-3.02
2023-02-26T17:50:54.603Z,-3.01
2023-02-26T17:53:23.850Z,-3.03
2023-02-26T17:55:56.635Z,-3.07
2023-02-26T17:58:29.668Z,-3.06
2023-02-26T18:00:57.404Z,-3.11
2023-02-26T18:03:24.472Z,-3.14
2023-02-26T18:05:54.674Z,-3.11
2023-02-26T18:08:28.429Z,-3.10
2023-02-26T18:10:56.596Z,-3.06
2023-02-26T18:13:23.741Z,-3.04
2023-02-26T18:15:52.241Z,-3.05
2023-02-26T18:18:21.855Z,-3.04
2023-02-26T18:20:49.559Z,-3.06
2023-02-26T18:23:19.006Z,-3.06
2023-02-26T18:25:49.835Z,-3.05
2023-02-26T18:28:24.440Z,-3.06
2023-02-26T18:30:53.311Z,-3.12
2023-02-26T18:33:23.593Z,-3.18
2023-02-26T18:35:55.375Z,-3.17
2023-02-26T18:38:24.319Z,-3.21
2023-02-26T18:40:52.664Z,-3.18
2023-02-26T18:43:21.265Z,-3.23
2023-02-26T18:45:50.377Z,-3.22
2023-02-26T18:48:20.644Z,-3.28
2023-02-26T18:50:49.252Z,-3.30
2023-02-26T18:53:17.941Z,-3.34
2023-02-26T18:55:45.855Z,-3.35
2023-02-26T18:58:13.636Z,-3.34
2023-02-26T19:00:42.010Z,-3.32
2023-02-26T19:03:09.507Z,-3.37
2023-02-26T19:05:37.039Z,-3.42
2023-02-26T19:08:04.701Z,-3.49
2023-02-26T19:10:32.099Z,-3.50
2023-02-26T19:12:59.435Z,-3.54
2023-02-26T19:15:27.384Z,-3.52
2023-02-26T19:17:54.969Z,-3.56
2023-02-26T19:20:22.398Z,-3.55
2023-02-26T19:22:49.671Z,-3.56
2023-02-26T19:25:17.069Z,-3.58
2023-02-26T19:27:44.186Z,-3.59
2023-02-26T19:30:11.871Z,-3.57
2023-02-26T19:32:39.093Z,-3.61
2023-02-26T19:35:07.962Z,-3.58
2023-02-26T19:37:35.448Z,-3.59
2023-02-26T19:40:07.191Z,-3.59
2023-02-26T19:42:34.340Z,-3.59
2023-02-26T19:45:01.688Z,-3.60
2023-02-26T19:47:31.238Z,-3.63
2023-02-26T19:49:58.712Z,-3.62
2023-02-26T19:52:26.180Z,-3.62
2023-02-26T19:54:53.151Z,-3.59
2023-02-26T19:57:21.242Z,-3.59
2023-02-26T19:59:48.726Z,-3.62
2023-02-26T20:02:16.271Z,-3.59
2023-02-26T20:04:43.080Z,-3.55
2023-02-26T20:07:10.142Z,-3.54
2023-02-26T20:09:37.006Z,-3.52
2023-02-26T20:12:03.918Z,-3.58
2023-02-26T20:14:30.736Z,-3.63
2023-02-26T20:16:57.695Z,-3.53
2023-02-26T20:19:24.522Z,-3.61
2023-02-26T20:21:51.303Z,-3.62
2023-02-26T20:24:20.112Z,-3.62
2023-02-26T20:26:48.943Z,-3.66
2023-02-26T20:29:18.482Z,-3.66
2023-02-26T20:31:49.564Z,-3.65
2023-02-26T20:34:20.317Z,-3.59
2023-02-26T20:36:54.588Z,-3.65
2023-02-26T20:39:22.445Z,-3.67
2023-02-26T20:41:50.522Z,-3.71
2023-02-26T20:44:17.802Z,-3.71
2023-02-26T20:46:44.758Z,-3.72
2023-02-26T20:49:11.794Z,-3.70
2023-02-26T20:51:41.043Z,-3.69
2023-02-26T20:54:09.501Z,-3.71
2023-02-26T20:56:36.369Z,-3.68
2023-02-26T20:59:03.353Z,-3.68
2023-02-26T21:01:35.562Z,-3.67
2023-02-26T21:04:04.794Z,-3.65
2023-02-26T21:06:32.418Z,-3.62
2023-02-26T21:09:00.292Z,-3.62
2023-02-26T21:11:31.753Z,-3.62
2023-02-26T21:13:59.202Z,-3.61
2023-02-26T21:16:28.506Z,-3.60
2023-02-26T21:18:57.080Z,-3.55
2023-02-26T21:21:24.370Z,-3.61
2023-02-26T21:23:53.063Z,-3.59
2023-02-26T21:26:20.898Z,-3.58
2023-02-26T21:28:48.518Z,-3.66
2023-02-26T21:31:17.677Z,-3.57
2023-02-26T21:33:45.079Z,-3.60
2023-02-26T21:36:14.076Z,-3.65
2023-02-26T21:38:42.100Z,-3.72
2023-02-26T21:41:09.042Z,-3.74
2023-02-26T21:43:36.001Z,-3.75
2023-02-26T21:46:03.782Z,-3.76
2023-02-26T21:48:30.666Z,-3.76
2023-02-26T21:50:59.667Z,-3.76
2023-02-26T21:53:26.951Z,-3.72
2023-02-26T21:55:54.498Z,-3.71
2023-02-26T21:58:21.451Z,-3.71
2023-02-26T22:00:48.540Z,-3.80
2023-02-26T22:03:15.464Z,-3.82
2023-02-26T22:05:42.536Z,-3.77
2023-02-26T22:08:09.729Z,-3.75
2023-02-26T22:10:36.574Z,-3.79
2023-02-26T22:13:03.559Z,-3.86
2023-02-26T22:15:30.341Z,-3.81
2023-02-26T22:17:57.085Z,-3.83
2023-02-26T22:20:23.885Z,-3.84
2023-02-26T22:22:51.807Z,-3.85
2023-02-26T22:25:18.788Z,-3.85
2023-02-26T22:27:45.555Z,-3.85
2023-02-26T22:30:12.695Z,-3.84
2023-02-26T22:32:39.557Z,-3.86
2023-02-26T22:35:06.950Z,-3.85
2023-02-26T22:37:33.935Z,-3.88
2023-02-26T22:40:00.668Z,-3.87
2023-02-26T22:42:27.417Z,-3.90
2023-02-26T22:44:54.160Z,-3.93
2023-02-26T22:47:21.078Z,-3.96
2023-02-26T22:49:47.988Z,-3.97
2023-02-26T22:52:15.167Z,-4.01
2023-02-26T22:54:42.024Z,-4.03
2023-02-26T22:57:08.768Z,-4.07
2023-02-26T22:59:35.495Z,-4.09
2023-02-26T23:02:02.485Z,-4.09
2023-02-26T23:04:29.320Z,-4.12
2023-02-26T23:06:56.081Z,-4.11
2023-02-26T23:09:22.829Z,-4.11
2023-02-26T23:11:49.990Z,-4.14
2023-02-26T23:14:17.012Z,-4.15
2023-02-26T23:16:44.408Z,-4.14
2023-02-26T23:19:11.906Z,-4.08
2023-02-26T23:21:38.693Z,-4.09
2023-02-26T23:24:05.545Z,-4.16
2023-02-26T23:26:32.438Z,-4.14
2023-02-26T23:28:59.365Z,-4.18
2023-02-26T23:31:26.686Z,-4.14
2023-02-26T23:33:53.774Z,-4.10
2023-02-26T23:36:20.583Z,-4.18
2023-02-26T23:38:47.349Z,-4.18
2023-02-26T23:41:14.143Z,-4.19
2023-02-26T23:43:40.857Z,-4.17
2023-02-26T23:46:07.677Z,-4.19
2023-02-26T23:48:34.476Z,-4.20
2023-02-26T23:51:01.986Z,-4.15
2023-02-26T23:53:28.757Z,-4.11
2023-02-26T23:55:59.261Z,-4.08
2023-02-26T23:58:27.877Z,-4.11
